sensor_id;sensor_type;location;lat;lon;timestamp;temperature;humidity
70708;SHT30;58277;47.316;18.908;2023-11-21T00:01:22;6.81;85.85
70708;SHT30;58277;47.316;18.908;2023-11-21T00:03:45;6.69;86.27
70708;SHT30;58277;47.316;18.908;2023-11-21T00:06:08;6.64;86.75
70708;SHT30;58277;47.316;18.908;2023-11-21T00:08:36;6.49;87.33
70708;SHT30;58277;47.316;18.908;2023-11-21T00:10:58;6.51;87.54
70708;SHT30;58277;47.316;18.908;2023-11-21T00:13:22;6.53;87.57
70708;SHT30;58277;47.316;18.908;2023-11-21T00:15:45;6.56;87.52
70708;SHT30;58277;47.316;18.908;2023-11-21T00:18:10;6.53;87.68
70708;SHT30;58277;47.316;18.908;2023-11-21T00:20:35;6.61;87.56
70708;SHT30;58277;47.316;18.908;2023-11-21T00:22:58;6.57;87.78
70708;SHT30;58277;47.316;18.908;2023-11-21T00:25:22;6.60;87.77
70708;SHT30;58277;47.316;18.908;2023-11-21T00:27:44;6.69;87.32
70708;SHT30;58277;47.316;18.908;2023-11-21T00:30:11;6.63;87.48
70708;SHT30;58277;47.316;18.908;2023-11-21T00:32:37;6.70;87.46
70708;SHT30;58277;47.316;18.908;2023-11-21T00:35:00;6.73;87.28
70708;SHT30;58277;47.316;18.908;2023-11-21T00:37:23;6.76;87.17
70708;SHT30;58277;47.316;18.908;2023-11-21T00:39:47;6.69;87.28
70708;SHT30;58277;47.316;18.908;2023-11-21T00:42:11;6.76;87.09
70708;SHT30;58277;47.316;18.908;2023-11-21T00:44:38;6.69;87.18
70708;SHT30;58277;47.316;18.908;2023-11-21T00:47:01;6.78;87.22
70708;SHT30;58277;47.316;18.908;2023-11-21T00:49:25;6.56;87.71
70708;SHT30;58277;47.316;18.908;2023-11-21T00:51:48;6.56;88.00
70708;SHT30;58277;47.316;18.908;2023-11-21T00:54:14;6.56;88.00
70708;SHT30;58277;47.316;18.908;2023-11-21T00:56:39;6.76;87.48
70708;SHT30;58277;47.316;18.908;2023-11-21T00:59:02;6.90;86.92
70708;SHT30;58277;47.316;18.908;2023-11-21T01:01:27;6.98;86.55
70708;SHT30;58277;47.316;18.908;2023-11-21T01:03:50;6.99;86.41
70708;SHT30;58277;47.316;18.908;2023-11-21T01:06:15;6.95;86.47
70708;SHT30;58277;47.316;18.908;2023-11-21T01:08:38;6.92;86.38
70708;SHT30;58277;47.316;18.908;2023-11-21T01:11:01;6.92;86.00
70708;SHT30;58277;47.316;18.908;2023-11-21T01:13:24;6.87;85.72
70708;SHT30;58277;47.316;18.908;2023-11-21T01:15:50;6.78;86.00
70708;SHT30;58277;47.316;18.908;2023-11-21T01:18:15;6.69;86.18
70708;SHT30;58277;47.316;18.908;2023-11-21T01:20:38;6.61;86.64
70708;SHT30;58277;47.316;18.908;2023-11-21T01:23:01;6.56;86.95
70708;SHT30;58277;47.316;18.908;2023-11-21T01:25:24;6.58;86.65
70708;SHT30;58277;47.316;18.908;2023-11-21T01:27:46;6.53;86.48
70708;SHT30;58277;47.316;18.908;2023-11-21T01:30:11;6.56;86.27
70708;SHT30;58277;47.316;18.908;2023-11-21T01:32:37;6.61;86.11
70708;SHT30;58277;47.316;18.908;2023-11-21T01:35:00;6.57;85.88
70708;SHT30;58277;47.316;18.908;2023-11-21T01:37:23;6.66;85.62
70708;SHT30;58277;47.316;18.908;2023-11-21T01:39:47;6.63;85.66
70708;SHT30;58277;47.316;18.908;2023-11-21T01:42:12;6.69;85.68
70708;SHT30;58277;47.316;18.908;2023-11-21T01:44:36;6.73;85.58
70708;SHT30;58277;47.316;18.908;2023-11-21T01:46:59;6.81;85.49
70708;SHT30;58277;47.316;18.908;2023-11-21T01:49:22;6.87;85.32
70708;SHT30;58277;47.316;18.908;2023-11-21T01:51:47;6.88;85.41
70708;SHT30;58277;47.316;18.908;2023-11-21T01:54:12;6.90;85.49
70708;SHT30;58277;47.316;18.908;2023-11-21T01:56:40;6.97;85.28
70708;SHT30;58277;47.316;18.908;2023-11-21T01:59:02;7.07;85.14
70708;SHT30;58277;47.316;18.908;2023-11-21T02:01:25;7.02;85.14
70708;SHT30;58277;47.316;18.908;2023-11-21T02:03:48;7.05;85.07
70708;SHT30;58277;47.316;18.908;2023-11-21T02:06:12;6.97;84.95
70708;SHT30;58277;47.316;18.908;2023-11-21T02:08:36;7.01;85.04
70708;SHT30;58277;47.316;18.908;2023-11-21T02:11:00;7.02;85.13
70708;SHT30;58277;47.316;18.908;2023-11-21T02:13:23;6.99;85.23
70708;SHT30;58277;47.316;18.908;2023-11-21T02:15:45;7.11;85.14
70708;SHT30;58277;47.316;18.908;2023-11-21T02:18:10;7.18;84.81
70708;SHT30;58277;47.316;18.908;2023-11-21T02:20:35;7.22;85.02
70708;SHT30;58277;47.316;18.908;2023-11-21T02:23:01;7.28;84.82
70708;SHT30;58277;47.316;18.908;2023-11-21T02:25:25;7.26;84.77
70708;SHT30;58277;47.316;18.908;2023-11-21T02:27:48;7.19;84.71
70708;SHT30;58277;47.316;18.908;2023-11-21T02:30:12;7.05;84.95
70708;SHT30;58277;47.316;18.908;2023-11-21T02:32:36;7.12;84.98
70708;SHT30;58277;47.316;18.908;2023-11-21T02:35:10;7.14;84.79
70708;SHT30;58277;47.316;18.908;2023-11-21T02:37:35;7.32;84.16
70708;SHT30;58277;47.316;18.908;2023-11-21T02:39:57;7.33;84.13
70708;SHT30;58277;47.316;18.908;2023-11-21T02:42:22;7.35;84.19
70708;SHT30;58277;47.316;18.908;2023-11-21T02:44:45;7.42;83.95
70708;SHT30;58277;47.316;18.908;2023-11-21T02:47:07;7.49;83.60
70708;SHT30;58277;47.316;18.908;2023-11-21T02:49:31;7.49;84.14
70708;SHT30;58277;47.316;18.908;2023-11-21T02:51:54;7.55;84.07
70708;SHT30;58277;47.316;18.908;2023-11-21T02:54:17;7.66;83.63
70708;SHT30;58277;47.316;18.908;2023-11-21T02:56:42;7.55;83.92
70708;SHT30;58277;47.316;18.908;2023-11-21T02:59:04;7.60;83.96
70708;SHT30;58277;47.316;18.908;2023-11-21T03:01:27;7.59;83.88
70708;SHT30;58277;47.316;18.908;2023-11-21T03:03:51;7.64;83.84
70708;SHT30;58277;47.316;18.908;2023-11-21T03:06:14;7.62;84.04
70708;SHT30;58277;47.316;18.908;2023-11-21T03:08:38;7.56;83.94
70708;SHT30;58277;47.316;18.908;2023-11-21T03:11:01;7.56;84.05
70708;SHT30;58277;47.316;18.908;2023-11-21T03:13:25;7.50;84.08
70708;SHT30;58277;47.316;18.908;2023-11-21T03:15:48;7.50;84.03
70708;SHT30;58277;47.316;18.908;2023-11-21T03:18:11;7.47;83.95
70708;SHT30;58277;47.316;18.908;2023-11-21T03:20:36;7.46;84.03
70708;SHT30;58277;47.316;18.908;2023-11-21T03:22:59;7.33;84.48
70708;SHT30;58277;47.316;18.908;2023-11-21T03:25:22;7.35;84.53
70708;SHT30;58277;47.316;18.908;2023-11-21T03:27:46;7.42;84.25
70708;SHT30;58277;47.316;18.908;2023-11-21T03:30:10;7.36;83.59
70708;SHT30;58277;47.316;18.908;2023-11-21T03:32:36;7.49;83.25
70708;SHT30;58277;47.316;18.908;2023-11-21T03:34:59;7.50;83.75
70708;SHT30;58277;47.316;18.908;2023-11-21T03:37:22;7.50;83.67
70708;SHT30;58277;47.316;18.908;2023-11-21T03:39:45;7.59;83.46
70708;SHT30;58277;47.316;18.908;2023-11-21T03:42:10;7.56;83.31
70708;SHT30;58277;47.316;18.908;2023-11-21T03:44:35;7.60;83.26
70708;SHT30;58277;47.316;18.908;2023-11-21T03:46:58;7.63;83.34
70708;SHT30;58277;47.316;18.908;2023-11-21T03:49:20;7.77;83.17
70708;SHT30;58277;47.316;18.908;2023-11-21T03:51:43;7.74;83.31
70708;SHT30;58277;47.316;18.908;2023-11-21T03:54:06;7.76;83.31
70708;SHT30;58277;47.316;18.908;2023-11-21T03:56:30;7.78;83.35
70708;SHT30;58277;47.316;18.908;2023-11-21T03:58:52;7.84;83.29
70708;SHT30;58277;47.316;18.908;2023-11-21T04:01:24;7.84;83.09
70708;SHT30;58277;47.316;18.908;2023-11-21T04:03:48;7.91;82.64
70708;SHT30;58277;47.316;18.908;2023-11-21T04:06:11;8.02;82.33
70708;SHT30;58277;47.316;18.908;2023-11-21T04:08:35;8.09;81.86
70708;SHT30;58277;47.316;18.908;2023-11-21T04:10:58;8.18;81.65
70708;SHT30;58277;47.316;18.908;2023-11-21T04:13:21;8.24;81.50
70708;SHT30;58277;47.316;18.908;2023-11-21T04:15:43;8.36;81.16
70708;SHT30;58277;47.316;18.908;2023-11-21T04:18:10;8.32;81.13
70708;SHT30;58277;47.316;18.908;2023-11-21T04:20:37;8.32;81.01
70708;SHT30;58277;47.316;18.908;2023-11-21T04:23:00;8.26;80.83
70708;SHT30;58277;47.316;18.908;2023-11-21T04:25:22;8.28;80.70
70708;SHT30;58277;47.316;18.908;2023-11-21T04:27:45;8.31;80.56
70708;SHT30;58277;47.316;18.908;2023-11-21T04:30:10;8.42;80.29
70708;SHT30;58277;47.316;18.908;2023-11-21T04:32:35;8.42;80.14
70708;SHT30;58277;47.316;18.908;2023-11-21T04:34:58;8.38;80.32
70708;SHT30;58277;47.316;18.908;2023-11-21T04:37:21;8.39;80.23
70708;SHT30;58277;47.316;18.908;2023-11-21T04:39:43;8.41;80.33
70708;SHT30;58277;47.316;18.908;2023-11-21T04:42:09;8.41;80.70
70708;SHT30;58277;47.316;18.908;2023-11-21T04:44:33;8.54;80.04
70708;SHT30;58277;47.316;18.908;2023-11-21T04:46:56;8.45;80.01
70708;SHT30;58277;47.316;18.908;2023-11-21T04:49:18;8.49;79.96
70708;SHT30;58277;47.316;18.908;2023-11-21T04:51:41;8.57;79.87
70708;SHT30;58277;47.316;18.908;2023-11-21T04:54:04;8.67;79.47
70708;SHT30;58277;47.316;18.908;2023-11-21T04:56:32;8.69;79.46
70708;SHT30;58277;47.316;18.908;2023-11-21T04:58:55;8.66;79.93
70708;SHT30;58277;47.316;18.908;2023-11-21T05:01:18;8.33;79.90
70708;SHT30;58277;47.316;18.908;2023-11-21T05:03:41;7.85;80.77
70708;SHT30;58277;47.316;18.908;2023-11-21T05:06:04;7.55;81.86
70708;SHT30;58277;47.316;18.908;2023-11-21T05:08:32;7.14;82.57
70708;SHT30;58277;47.316;18.908;2023-11-21T05:10:55;7.39;81.95
70708;SHT30;58277;47.316;18.908;2023-11-21T05:13:17;7.49;81.37
70708;SHT30;58277;47.316;18.908;2023-11-21T05:15:41;7.32;82.13
70708;SHT30;58277;47.316;18.908;2023-11-21T05:18:03;7.23;82.73
70708;SHT30;58277;47.316;18.908;2023-11-21T05:20:34;7.25;82.76
70708;SHT30;58277;47.316;18.908;2023-11-21T05:22:56;7.25;82.83
70708;SHT30;58277;47.316;18.908;2023-11-21T05:25:21;7.36;82.64
70708;SHT30;58277;47.316;18.908;2023-11-21T05:27:45;7.32;83.02
70708;SHT30;58277;47.316;18.908;2023-11-21T05:30:08;7.23;83.79
70708;SHT30;58277;47.316;18.908;2023-11-21T05:32:36;7.36;83.46
70708;SHT30;58277;47.316;18.908;2023-11-21T05:34:58;7.39;83.75
70708;SHT30;58277;47.316;18.908;2023-11-21T05:37:22;7.18;84.32
70708;SHT30;58277;47.316;18.908;2023-11-21T05:39:45;6.88;84.60
70708;SHT30;58277;47.316;18.908;2023-11-21T05:42:14;6.76;85.21
70708;SHT30;58277;47.316;18.908;2023-11-21T05:44:41;6.66;85.28
70708;SHT30;58277;47.316;18.908;2023-11-21T05:47:04;6.78;85.27
70708;SHT30;58277;47.316;18.908;2023-11-21T05:49:29;7.07;84.50
70708;SHT30;58277;47.316;18.908;2023-11-21T05:51:56;7.18;84.17
70708;SHT30;58277;47.316;18.908;2023-11-21T05:54:22;7.25;83.97
70708;SHT30;58277;47.316;18.908;2023-11-21T05:56:46;7.16;84.68
70708;SHT30;58277;47.316;18.908;2023-11-21T05:59:09;7.18;84.99
70708;SHT30;58277;47.316;18.908;2023-11-21T06:01:32;7.26;85.02
70708;SHT30;58277;47.316;18.908;2023-11-21T06:03:55;7.40;84.90
70708;SHT30;58277;47.316;18.908;2023-11-21T06:06:18;7.53;84.37
70708;SHT30;58277;47.316;18.908;2023-11-21T06:08:42;7.60;84.36
70708;SHT30;58277;47.316;18.908;2023-11-21T06:11:05;7.74;83.61
70708;SHT30;58277;47.316;18.908;2023-11-21T06:13:28;7.76;83.23
70708;SHT30;58277;47.316;18.908;2023-11-21T06:15:51;7.71;83.20
70708;SHT30;58277;47.316;18.908;2023-11-21T06:18:14;7.77;82.97
70708;SHT30;58277;47.316;18.908;2023-11-21T06:20:38;7.81;82.60
70708;SHT30;58277;47.316;18.908;2023-11-21T06:23:04;7.95;82.19
70708;SHT30;58277;47.316;18.908;2023-11-21T06:25:28;7.95;82.30
70708;SHT30;58277;47.316;18.908;2023-11-21T06:27:51;8.02;81.86
70708;SHT30;58277;47.316;18.908;2023-11-21T06:30:17;8.05;81.99
70708;SHT30;58277;47.316;18.908;2023-11-21T06:32:43;8.11;81.50
70708;SHT30;58277;47.316;18.908;2023-11-21T06:35:10;8.14;81.29
70708;SHT30;58277;47.316;18.908;2023-11-21T06:37:33;8.15;81.15
70708;SHT30;58277;47.316;18.908;2023-11-21T06:39:56;8.14;81.17
70708;SHT30;58277;47.316;18.908;2023-11-21T06:42:20;8.08;81.86
70708;SHT30;58277;47.316;18.908;2023-11-21T06:44:44;8.08;82.01
70708;SHT30;58277;47.316;18.908;2023-11-21T06:47:07;8.08;81.67
70708;SHT30;58277;47.316;18.908;2023-11-21T06:49:30;8.25;81.49
70708;SHT30;58277;47.316;18.908;2023-11-21T06:51:54;8.22;81.31
70708;SHT30;58277;47.316;18.908;2023-11-21T06:54:19;8.09;81.80
70708;SHT30;58277;47.316;18.908;2023-11-21T06:56:43;8.08;82.18
70708;SHT30;58277;47.316;18.908;2023-11-21T06:59:05;8.09;82.04
70708;SHT30;58277;47.316;18.908;2023-11-21T07:01:29;8.22;81.59
70708;SHT30;58277;47.316;18.908;2023-11-21T07:03:52;8.20;81.55
70708;SHT30;58277;47.316;18.908;2023-11-21T07:06:15;8.24;81.52
70708;SHT30;58277;47.316;18.908;2023-11-21T07:08:41;8.22;81.54
70708;SHT30;58277;47.316;18.908;2023-11-21T07:11:05;8.22;81.70
70708;SHT30;58277;47.316;18.908;2023-11-21T07:13:28;8.29;81.17
70708;SHT30;58277;47.316;18.908;2023-11-21T07:15:50;8.35;81.27
70708;SHT30;58277;47.316;18.908;2023-11-21T07:18:15;8.46;81.10
70708;SHT30;58277;47.316;18.908;2023-11-21T07:20:38;8.63;80.49
70708;SHT30;58277;47.316;18.908;2023-11-21T07:23:01;8.66;80.31
70708;SHT30;58277;47.316;18.908;2023-11-21T07:25:23;8.73;80.02
70708;SHT30;58277;47.316;18.908;2023-11-21T07:27:46;8.88;79.76
70708;SHT30;58277;47.316;18.908;2023-11-21T07:30:10;8.88;79.59
70708;SHT30;58277;47.316;18.908;2023-11-21T07:32:37;8.98;79.26
70708;SHT30;58277;47.316;18.908;2023-11-21T07:35:03;9.00;78.98
70708;SHT30;58277;47.316;18.908;2023-11-21T07:37:26;9.21;78.55
70708;SHT30;58277;47.316;18.908;2023-11-21T07:39:51;9.32;78.39
70708;SHT30;58277;47.316;18.908;2023-11-21T07:42:18;9.24;78.50
70708;SHT30;58277;47.316;18.908;2023-11-21T07:44:47;9.22;78.73
70708;SHT30;58277;47.316;18.908;2023-11-21T07:47:10;9.27;78.89
70708;SHT30;58277;47.316;18.908;2023-11-21T07:49:54;9.21;78.74
70708;SHT30;58277;47.316;18.908;2023-11-21T07:52:18;9.28;78.73
70708;SHT30;58277;47.316;18.908;2023-11-21T07:54:43;9.11;79.39
70708;SHT30;58277;47.316;18.908;2023-11-21T07:57:07;9.17;79.43
70708;SHT30;58277;47.316;18.908;2023-11-21T07:59:30;9.12;79.73
70708;SHT30;58277;47.316;18.908;2023-11-21T08:01:53;9.17;79.62
70708;SHT30;58277;47.316;18.908;2023-11-21T08:04:17;9.15;79.79
70708;SHT30;58277;47.316;18.908;2023-11-21T08:06:39;9.08;79.84
70708;SHT30;58277;47.316;18.908;2023-11-21T08:09:05;9.18;79.85
70708;SHT30;58277;47.316;18.908;2023-11-21T08:11:28;9.15;80.32
70708;SHT30;58277;47.316;18.908;2023-11-21T08:13:54;9.11;80.33
70708;SHT30;58277;47.316;18.908;2023-11-21T08:16:17;9.17;80.24
70708;SHT30;58277;47.316;18.908;2023-11-21T08:18:41;9.12;80.45
70708;SHT30;58277;47.316;18.908;2023-11-21T08:21:03;9.19;80.40
70708;SHT30;58277;47.316;18.908;2023-11-21T08:23:27;9.25;80.27
70708;SHT30;58277;47.316;18.908;2023-11-21T08:25:51;9.29;80.38
70708;SHT30;58277;47.316;18.908;2023-11-21T08:28:15;9.24;80.41
70708;SHT30;58277;47.316;18.908;2023-11-21T08:30:39;9.14;80.72
70708;SHT30;58277;47.316;18.908;2023-11-21T08:33:04;9.18;80.62
70708;SHT30;58277;47.316;18.908;2023-11-21T08:35:27;9.18;80.67
70708;SHT30;58277;47.316;18.908;2023-11-21T08:37:53;9.35;80.10
70708;SHT30;58277;47.316;18.908;2023-11-21T08:40:17;9.25;80.05
70708;SHT30;58277;47.316;18.908;2023-11-21T08:42:40;9.31;79.92
70708;SHT30;58277;47.316;18.908;2023-11-21T08:45:04;9.35;79.76
70708;SHT30;58277;47.316;18.908;2023-11-21T08:47:32;9.34;79.85
70708;SHT30;58277;47.316;18.908;2023-11-21T08:49:55;9.46;79.48
70708;SHT30;58277;47.316;18.908;2023-11-21T08:52:19;9.45;79.62
70708;SHT30;58277;47.316;18.908;2023-11-21T08:54:45;9.52;79.51
70708;SHT30;58277;47.316;18.908;2023-11-21T08:57:08;9.57;79.33
70708;SHT30;58277;47.316;18.908;2023-11-21T08:59:31;9.62;79.12
70708;SHT30;58277;47.316;18.908;2023-11-21T09:01:54;9.67;78.93
70708;SHT30;58277;47.316;18.908;2023-11-21T09:04:17;9.65;79.06
70708;SHT30;58277;47.316;18.908;2023-11-21T09:06:40;9.55;78.82
70708;SHT30;58277;47.316;18.908;2023-11-21T09:09:06;9.70;78.53
70708;SHT30;58277;47.316;18.908;2023-11-21T09:11:32;9.79;77.89
70708;SHT30;58277;47.316;18.908;2023-11-21T09:13:57;9.90;77.46
70708;SHT30;58277;47.316;18.908;2023-11-21T09:16:20;10.00;76.94
70708;SHT30;58277;47.316;18.908;2023-11-21T09:18:43;9.90;77.11
70708;SHT30;58277;47.316;18.908;2023-11-21T09:21:07;10.22;76.25
70708;SHT30;58277;47.316;18.908;2023-11-21T09:23:31;10.32;75.93
70708;SHT30;58277;47.316;18.908;2023-11-21T09:25:54;10.42;75.84
70708;SHT30;58277;47.316;18.908;2023-11-21T09:28:20;10.48;75.61
70708;SHT30;58277;47.316;18.908;2023-11-21T09:30:43;10.41;75.70
70708;SHT30;58277;47.316;18.908;2023-11-21T09:33:06;10.51;75.60
70708;SHT30;58277;47.316;18.908;2023-11-21T09:35:29;10.38;75.70
70708;SHT30;58277;47.316;18.908;2023-11-21T09:37:52;10.44;75.64
70708;SHT30;58277;47.316;18.908;2023-11-21T09:40:15;10.44;75.82
70708;SHT30;58277;47.316;18.908;2023-11-21T09:42:43;10.55;75.87
70708;SHT30;58277;47.316;18.908;2023-11-21T09:45:29;10.69;75.67
70708;SHT30;58277;47.316;18.908;2023-11-21T09:47:56;10.68;75.14
70708;SHT30;58277;47.316;18.908;2023-11-21T09:50:20;10.88;74.74
70708;SHT30;58277;47.316;18.908;2023-11-21T09:55:18;11.07;74.17
70708;SHT30;58277;47.316;18.908;2023-11-21T09:57:44;11.17;74.92
70708;SHT30;58277;47.316;18.908;2023-11-21T10:00:15;11.20;75.15
70708;SHT30;58277;47.316;18.908;2023-11-21T10:02:41;11.11;75.43
70708;SHT30;58277;47.316;18.908;2023-11-21T10:05:07;11.01;75.41
70708;SHT30;58277;47.316;18.908;2023-11-21T10:07:34;10.97;74.80
70708;SHT30;58277;47.316;18.908;2023-11-21T10:10:00;10.89;74.87
70708;SHT30;58277;47.316;18.908;2023-11-21T10:12:49;10.86;74.60
70708;SHT30;58277;47.316;18.908;2023-11-21T10:15:16;10.73;75.03
70708;SHT30;58277;47.316;18.908;2023-11-21T10:17:40;10.61;75.55
70708;SHT30;58277;47.316;18.908;2023-11-21T10:20:09;10.86;74.67
70708;SHT30;58277;47.316;18.908;2023-11-21T10:22:34;10.88;74.69
70708;SHT30;58277;47.316;18.908;2023-11-21T10:24:57;10.84;74.58
70708;SHT30;58277;47.316;18.908;2023-11-21T10:27:20;10.95;74.40
70708;SHT30;58277;47.316;18.908;2023-11-21T10:29:43;11.01;74.06
70708;SHT30;58277;47.316;18.908;2023-11-21T10:32:06;10.79;74.39
70708;SHT30;58277;47.316;18.908;2023-11-21T10:34:29;10.93;74.59
70708;SHT30;58277;47.316;18.908;2023-11-21T10:36:52;11.03;74.48
70708;SHT30;58277;47.316;18.908;2023-11-21T10:39:19;11.10;74.50
70708;SHT30;58277;47.316;18.908;2023-11-21T10:41:44;11.03;74.79
70708;SHT30;58277;47.316;18.908;2023-11-21T10:44:08;10.86;75.62
70708;SHT30;58277;47.316;18.908;2023-11-21T10:46:32;10.68;76.66
70708;SHT30;58277;47.316;18.908;2023-11-21T10:48:57;10.49;77.24
70708;SHT30;58277;47.316;18.908;2023-11-21T10:51:20;10.30;78.06
70708;SHT30;58277;47.316;18.908;2023-11-21T10:53:43;10.17;78.79
70708;SHT30;58277;47.316;18.908;2023-11-21T10:56:13;10.24;78.69
70708;SHT30;58277;47.316;18.908;2023-11-21T10:58:42;10.28;78.88
70708;SHT30;58277;47.316;18.908;2023-11-21T11:01:06;10.28;79.19
70708;SHT30;58277;47.316;18.908;2023-11-21T11:03:31;10.53;78.47
70708;SHT30;58277;47.316;18.908;2023-11-21T11:05:56;10.49;78.90
70708;SHT30;58277;47.316;18.908;2023-11-21T11:08:23;10.83;77.76
70708;SHT30;58277;47.316;18.908;2023-11-21T11:10:50;10.80;77.91
70708;SHT30;58277;47.316;18.908;2023-11-21T11:13:13;10.93;77.77
70708;SHT30;58277;47.316;18.908;2023-11-21T11:15:38;10.70;78.45
70708;SHT30;58277;47.316;18.908;2023-11-21T11:18:02;10.51;79.77
70708;SHT30;58277;47.316;18.908;2023-11-21T11:20:37;10.75;78.93
70708;SHT30;58277;47.316;18.908;2023-11-21T11:29:17;10.68;79.32
70708;SHT30;58277;47.316;18.908;2023-11-21T11:34:36;10.52;79.96
70708;SHT30;58277;47.316;18.908;2023-11-21T11:37:05;10.48;80.15
70708;SHT30;58277;47.316;18.908;2023-11-21T11:39:41;10.62;80.00
70708;SHT30;58277;47.316;18.908;2023-11-21T11:42:13;10.68;79.98
70708;SHT30;58277;47.316;18.908;2023-11-21T11:47:13;10.93;78.98
70708;SHT30;58277;47.316;18.908;2023-11-21T11:52:41;11.20;78.51
70708;SHT30;58277;47.316;18.908;2023-11-21T11:55:05;11.11;78.52
70708;SHT30;58277;47.316;18.908;2023-11-21T11:57:31;11.44;77.44
70708;SHT30;58277;47.316;18.908;2023-11-21T12:00:20;11.51;77.19
70708;SHT30;58277;47.316;18.908;2023-11-21T12:02:45;11.54;76.79
70708;SHT30;58277;47.316;18.908;2023-11-21T12:05:11;11.62;76.65
70708;SHT30;58277;47.316;18.908;2023-11-21T12:07:45;11.69;76.89
70708;SHT30;58277;47.316;18.908;2023-11-21T12:10:12;11.65;76.60
70708;SHT30;58277;47.316;18.908;2023-11-21T12:12:36;11.72;76.68
70708;SHT30;58277;47.316;18.908;2023-11-21T12:14:58;11.83;76.28
70708;SHT30;58277;47.316;18.908;2023-11-21T12:17:22;11.82;76.13
70708;SHT30;58277;47.316;18.908;2023-11-21T12:19:45;11.87;75.93
70708;SHT30;58277;47.316;18.908;2023-11-21T12:22:09;11.81;76.20
70708;SHT30;58277;47.316;18.908;2023-11-21T12:24:31;11.83;76.30
70708;SHT30;58277;47.316;18.908;2023-11-21T12:26:54;11.93;75.85
70708;SHT30;58277;47.316;18.908;2023-11-21T12:29:17;11.90;76.13
70708;SHT30;58277;47.316;18.908;2023-11-21T12:31:41;11.94;76.09
70708;SHT30;58277;47.316;18.908;2023-11-21T12:34:04;12.02;75.97
70708;SHT30;58277;47.316;18.908;2023-11-21T12:36:29;12.03;76.12
70708;SHT30;58277;47.316;18.908;2023-11-21T12:38:52;11.99;76.25
70708;SHT30;58277;47.316;18.908;2023-11-21T12:41:15;11.87;76.20
70708;SHT30;58277;47.316;18.908;2023-11-21T12:43:39;11.89;76.48
70708;SHT30;58277;47.316;18.908;2023-11-21T12:46:10;11.94;76.39
70708;SHT30;58277;47.316;18.908;2023-11-21T12:48:33;11.92;76.51
70708;SHT30;58277;47.316;18.908;2023-11-21T12:50:56;11.97;76.24
70708;SHT30;58277;47.316;18.908;2023-11-21T12:53:22;11.93;76.45
70708;SHT30;58277;47.316;18.908;2023-11-21T12:55:45;11.72;76.81
70708;SHT30;58277;47.316;18.908;2023-11-21T12:58:12;11.35;78.14
70708;SHT30;58277;47.316;18.908;2023-11-21T13:03:07;11.47;77.95
70708;SHT30;58277;47.316;18.908;2023-11-21T13:05:32;11.51;77.74
70708;SHT30;58277;47.316;18.908;2023-11-21T13:07:57;11.39;78.13
70708;SHT30;58277;47.316;18.908;2023-11-21T13:10:24;11.35;78.38
70708;SHT30;58277;47.316;18.908;2023-11-21T13:12:50;11.20;79.11
70708;SHT30;58277;47.316;18.908;2023-11-21T13:15:14;11.28;78.76
70708;SHT30;58277;47.316;18.908;2023-11-21T13:17:40;11.14;79.52
70708;SHT30;58277;47.316;18.908;2023-11-21T13:20:03;10.97;79.77
70708;SHT30;58277;47.316;18.908;2023-11-21T13:22:30;11.10;79.17
70708;SHT30;58277;47.316;18.908;2023-11-21T13:24:53;11.16;79.27
70708;SHT30;58277;47.316;18.908;2023-11-21T13:27:16;11.21;78.91
70708;SHT30;58277;47.316;18.908;2023-11-21T13:29:39;11.04;79.60
70708;SHT30;58277;47.316;18.908;2023-11-21T13:32:02;11.32;78.72
70708;SHT30;58277;47.316;18.908;2023-11-21T13:34:27;11.34;78.67
70708;SHT30;58277;47.316;18.908;2023-11-21T13:36:55;11.11;79.38
70708;SHT30;58277;47.316;18.908;2023-11-21T13:39:21;11.06;79.65
70708;SHT30;58277;47.316;18.908;2023-11-21T13:41:44;11.18;79.06
70708;SHT30;58277;47.316;18.908;2023-11-21T13:44:10;11.23;78.81
70708;SHT30;58277;47.316;18.908;2023-11-21T13:46:49;11.20;78.92
70708;SHT30;58277;47.316;18.908;2023-11-21T13:49:12;11.17;78.77
70708;SHT30;58277;47.316;18.908;2023-11-21T13:51:37;11.24;78.25
70708;SHT30;58277;47.316;18.908;2023-11-21T13:54:10;11.35;77.75
70708;SHT30;58277;47.316;18.908;2023-11-21T13:56:36;11.30;77.85
70708;SHT30;58277;47.316;18.908;2023-11-21T13:58:59;11.21;78.11
70708;SHT30;58277;47.316;18.908;2023-11-21T14:01:31;11.16;78.49
70708;SHT30;58277;47.316;18.908;2023-11-21T14:03:54;11.13;78.42
70708;SHT30;58277;47.316;18.908;2023-11-21T14:06:25;11.03;78.39
70708;SHT30;58277;47.316;18.908;2023-11-21T14:09:01;11.01;78.40
70708;SHT30;58277;47.316;18.908;2023-11-21T14:11:27;10.99;78.56
70708;SHT30;58277;47.316;18.908;2023-11-21T14:13:57;10.96;78.76
70708;SHT30;58277;47.316;18.908;2023-11-21T14:16:22;10.95;78.87
70708;SHT30;58277;47.316;18.908;2023-11-21T14:18:45;10.89;78.75
70708;SHT30;58277;47.316;18.908;2023-11-21T14:21:34;10.66;79.46
70708;SHT30;58277;47.316;18.908;2023-11-21T14:23:57;10.66;79.70
70708;SHT30;58277;47.316;18.908;2023-11-21T14:26:21;10.63;79.64
70708;SHT30;58277;47.316;18.908;2023-11-21T14:28:43;10.61;79.65
70708;SHT30;58277;47.316;18.908;2023-11-21T14:31:06;10.55;79.80
70708;SHT30;58277;47.316;18.908;2023-11-21T14:33:29;10.49;79.66
70708;SHT30;58277;47.316;18.908;2023-11-21T14:35:52;10.40;79.71
70708;SHT30;58277;47.316;18.908;2023-11-21T14:38:15;10.35;79.62
70708;SHT30;58277;47.316;18.908;2023-11-21T14:40:38;10.27;79.70
70708;SHT30;58277;47.316;18.908;2023-11-21T14:43:02;10.25;79.88
70708;SHT30;58277;47.316;18.908;2023-11-21T14:45:28;10.17;80.09
70708;SHT30;58277;47.316;18.908;2023-11-21T14:47:52;10.20;80.04
70708;SHT30;58277;47.316;18.908;2023-11-21T14:50:51;10.11;80.44
70708;SHT30;58277;47.316;18.908;2023-11-21T14:53:34;10.05;80.77
70708;SHT30;58277;47.316;18.908;2023-11-21T14:56:06;10.07;80.43
70708;SHT30;58277;47.316;18.908;2023-11-21T14:58:30;9.90;81.48
70708;SHT30;58277;47.316;18.908;2023-11-21T15:00:57;9.84;81.82
70708;SHT30;58277;47.316;18.908;2023-11-21T15:03:24;9.79;81.96
70708;SHT30;58277;47.316;18.908;2023-11-21T15:05:53;9.77;81.94
70708;SHT30;58277;47.316;18.908;2023-11-21T15:08:17;9.73;81.73
70708;SHT30;58277;47.316;18.908;2023-11-21T15:10:46;9.70;81.80
70708;SHT30;58277;47.316;18.908;2023-11-21T15:13:10;9.62;81.62
70708;SHT30;58277;47.316;18.908;2023-11-21T15:15:33;9.57;81.82
70708;SHT30;58277;47.316;18.908;2023-11-21T15:17:57;9.48;82.30
70708;SHT30;58277;47.316;18.908;2023-11-21T15:20:20;9.50;82.24
70708;SHT30;58277;47.316;18.908;2023-11-21T15:22:43;9.39;82.98
70708;SHT30;58277;47.316;18.908;2023-11-21T15:25:06;9.21;83.51
70708;SHT30;58277;47.316;18.908;2023-11-21T15:27:33;9.17;83.63
70708;SHT30;58277;47.316;18.908;2023-11-21T15:29:56;9.04;83.85